sensor_id;sensor_type;location;lat;lon;timestamp;P1;durP1;ratioP1;P2;durP2;ratioP2
9759;SDS011;4919;48.792;9.202;2023-02-21T00:02:23;9.37;;;7.03;;
9759;SDS011;4919;48.792;9.202;2023-02-21T00:05:07;8.87;;;7.53;;
9759;SDS011;4919;48.792;9.202;2023-02-21T00:07:52;11.27;;;8.10;;
9759;SDS011;4919;48.792;9.202;2023-02-21T00:10:37;8.60;;;6.43;;
9759;SDS011;4919;48.792;9.202;2023-02-21T00:13:22;9.70;;;7.50;;
9759;SDS011;4919;48.792;9.202;2023-02-21T00:16:07;9.63;;;7.43;;
9759;SDS011;4919;48.792;9.202;2023-02-21T00:18:52;11.70;;;7.47;;
9759;SDS011;4919;48.792;9.202;2023-02-21T00:21:37;10.67;;;7.53;;
9759;SDS011;4919;48.792;9.202;2023-02-21T00:24:21;10.57;;;7.20;;
9759;SDS011;4919;48.792;9.202;2023-02-21T00:27:06;10.23;;;7.90;;
9759;SDS011;4919;48.792;9.202;2023-02-21T00:29:51;11.23;;;7.50;;
9759;SDS011;4919;48.792;9.202;2023-02-21T00:32:36;10.40;;;7.70;;
9759;SDS011;4919;48.792;9.202;2023-02-21T00:35:21;10.13;;;6.40;;
9759;SDS011;4919;48.792;9.202;2023-02-21T00:38:06;11.00;;;7.53;;
9759;SDS011;4919;48.792;9.202;2023-02-21T00:40:51;11.73;;;8.03;;
9759;SDS011;4919;48.792;9.202;2023-02-21T00:43:36;11.17;;;8.17;;
9759;SDS011;4919;48.792;9.202;2023-02-21T00:46:21;10.63;;;8.23;;
9759;SDS011;4919;48.792;9.202;2023-02-21T00:49:06;12.10;;;8.77;;
9759;SDS011;4919;48.792;9.202;2023-02-21T00:51:50;11.40;;;8.10;;
9759;SDS011;4919;48.792;9.202;2023-02-21T00:54:35;12.50;;;8.83;;
9759;SDS011;4919;48.792;9.202;2023-02-21T00:57:21;12.53;;;8.53;;
9759;SDS011;4919;48.792;9.202;2023-02-21T01:00:07;12.27;;;8.10;;
9759;SDS011;4919;48.792;9.202;2023-02-21T01:02:57;12.43;;;8.47;;
9759;SDS011;4919;48.792;9.202;2023-02-21T01:05:42;14.10;;;9.07;;
9759;SDS011;4919;48.792;9.202;2023-02-21T01:08:27;12.87;;;8.43;;
9759;SDS011;4919;48.792;9.202;2023-02-21T01:11:16;11.63;;;8.33;;
9759;SDS011;4919;48.792;9.202;2023-02-21T01:14:02;12.60;;;8.80;;
9759;SDS011;4919;48.792;9.202;2023-02-21T01:16:47;13.20;;;8.40;;
9759;SDS011;4919;48.792;9.202;2023-02-21T01:19:32;13.53;;;9.80;;
9759;SDS011;4919;48.792;9.202;2023-02-21T01:22:17;12.60;;;8.47;;
9759;SDS011;4919;48.792;9.202;2023-02-21T01:25:02;13.20;;;8.83;;
9759;SDS011;4919;48.792;9.202;2023-02-21T01:27:47;12.73;;;9.03;;
9759;SDS011;4919;48.792;9.202;2023-02-21T01:30:32;12.63;;;8.53;;
9759;SDS011;4919;48.792;9.202;2023-02-21T01:33:17;13.73;;;8.53;;
9759;SDS011;4919;48.792;9.202;2023-02-21T01:36:05;14.50;;;9.43;;
9759;SDS011;4919;48.792;9.202;2023-02-21T01:38:50;14.17;;;8.10;;
9759;SDS011;4919;48.792;9.202;2023-02-21T01:41:35;15.73;;;9.23;;
9759;SDS011;4919;48.792;9.202;2023-02-21T01:44:37;12.43;;;8.73;;
9759;SDS011;4919;48.792;9.202;2023-02-21T01:47:24;12.27;;;9.00;;
9759;SDS011;4919;48.792;9.202;2023-02-21T01:50:18;13.53;;;8.80;;
9759;SDS011;4919;48.792;9.202;2023-02-21T01:53:15;12.67;;;8.23;;
9759;SDS011;4919;48.792;9.202;2023-02-21T01:56:02;12.50;;;8.97;;
9759;SDS011;4919;48.792;9.202;2023-02-21T01:58:50;12.13;;;8.90;;
9759;SDS011;4919;48.792;9.202;2023-02-21T02:01:41;11.40;;;8.13;;
9759;SDS011;4919;48.792;9.202;2023-02-21T02:04:33;12.17;;;8.50;;
9759;SDS011;4919;48.792;9.202;2023-02-21T02:07:18;11.67;;;8.80;;
9759;SDS011;4919;48.792;9.202;2023-02-21T02:10:03;12.33;;;8.77;;
9759;SDS011;4919;48.792;9.202;2023-02-21T02:28:51;11.67;;;8.53;;
9759;SDS011;4919;48.792;9.202;2023-02-21T02:38:45;11.10;;;7.00;;
9759;SDS011;4919;48.792;9.202;2023-02-21T02:41:49;12.30;;;8.13;;
9759;SDS011;4919;48.792;9.202;2023-02-21T02:44:40;10.37;;;7.00;;
9759;SDS011;4919;48.792;9.202;2023-02-21T02:47:39;10.90;;;7.67;;
9759;SDS011;4919;48.792;9.202;2023-02-21T02:50:27;11.43;;;8.00;;
9759;SDS011;4919;48.792;9.202;2023-02-21T02:53:14;11.40;;;8.37;;
9759;SDS011;4919;48.792;9.202;2023-02-21T02:56:02;11.60;;;8.20;;
9759;SDS011;4919;48.792;9.202;2023-02-21T02:59:02;11.17;;;7.77;;
9759;SDS011;4919;48.792;9.202;2023-02-21T03:11:25;9.80;;;6.63;;
9759;SDS011;4919;48.792;9.202;2023-02-21T03:14:14;10.57;;;7.73;;
9759;SDS011;4919;48.792;9.202;2023-02-21T03:17:03;10.33;;;7.63;;
9759;SDS011;4919;48.792;9.202;2023-02-21T03:19:53;12.97;;;7.80;;
9759;SDS011;4919;48.792;9.202;2023-02-21T03:22:41;13.43;;;8.53;;
9759;SDS011;4919;48.792;9.202;2023-02-21T03:25:27;9.40;;;7.47;;
9759;SDS011;4919;48.792;9.202;2023-02-21T03:28:15;12.00;;;7.53;;
9759;SDS011;4919;48.792;9.202;2023-02-21T03:31:00;10.67;;;7.93;;
9759;SDS011;4919;48.792;9.202;2023-02-21T03:33:47;11.00;;;7.53;;
9759;SDS011;4919;48.792;9.202;2023-02-21T03:36:32;10.17;;;7.00;;
9759;SDS011;4919;48.792;9.202;2023-02-21T03:39:19;11.70;;;8.17;;
9759;SDS011;4919;48.792;9.202;2023-02-21T03:42:04;11.33;;;8.23;;
9759;SDS011;4919;48.792;9.202;2023-02-21T03:44:49;12.80;;;8.07;;
9759;SDS011;4919;48.792;9.202;2023-02-21T03:47:34;10.90;;;8.57;;
9759;SDS011;4919;48.792;9.202;2023-02-21T03:50:18;10.43;;;7.87;;
9759;SDS011;4919;48.792;9.202;2023-02-21T03:53:03;12.80;;;8.80;;
9759;SDS011;4919;48.792;9.202;2023-02-21T03:55:48;11.57;;;8.07;;
9759;SDS011;4919;48.792;9.202;2023-02-21T03:58:33;11.53;;;8.07;;
9759;SDS011;4919;48.792;9.202;2023-02-21T04:01:18;12.43;;;8.70;;
9759;SDS011;4919;48.792;9.202;2023-02-21T04:04:03;13.87;;;9.10;;
9759;SDS011;4919;48.792;9.202;2023-02-21T04:06:47;12.93;;;9.03;;
9759;SDS011;4919;48.792;9.202;2023-02-21T04:09:32;12.73;;;8.60;;
9759;SDS011;4919;48.792;9.202;2023-02-21T04:12:17;10.30;;;7.87;;
9759;SDS011;4919;48.792;9.202;2023-02-21T04:15:02;11.97;;;8.70;;
9759;SDS011;4919;48.792;9.202;2023-02-21T04:17:48;12.73;;;9.20;;
9759;SDS011;4919;48.792;9.202;2023-02-21T04:20:32;12.40;;;7.93;;
9759;SDS011;4919;48.792;9.202;2023-02-21T04:23:18;13.13;;;9.10;;
9759;SDS011;4919;48.792;9.202;2023-02-21T04:26:03;11.17;;;8.23;;
9759;SDS011;4919;48.792;9.202;2023-02-21T04:28:51;13.37;;;9.03;;
9759;SDS011;4919;48.792;9.202;2023-02-21T04:31:36;11.37;;;8.20;;
9759;SDS011;4919;48.792;9.202;2023-02-21T04:34:21;13.93;;;8.57;;
9759;SDS011;4919;48.792;9.202;2023-02-21T04:37:06;12.80;;;8.60;;
9759;SDS011;4919;48.792;9.202;2023-02-21T04:39:51;12.83;;;9.10;;
9759;SDS011;4919;48.792;9.202;2023-02-21T04:42:36;12.60;;;8.70;;
9759;SDS011;4919;48.792;9.202;2023-02-21T04:45:21;12.17;;;8.63;;
9759;SDS011;4919;48.792;9.202;2023-02-21T04:48:06;12.63;;;8.77;;
9759;SDS011;4919;48.792;9.202;2023-02-21T04:50:51;12.73;;;8.83;;
9759;SDS011;4919;48.792;9.202;2023-02-21T04:53:35;13.57;;;9.30;;
9759;SDS011;4919;48.792;9.202;2023-02-21T04:56:22;13.43;;;9.30;;
9759;SDS011;4919;48.792;9.202;2023-02-21T04:59:08;13.77;;;9.17;;
9759;SDS011;4919;48.792;9.202;2023-02-21T05:01:53;13.83;;;9.03;;
9759;SDS011;4919;48.792;9.202;2023-02-21T05:04:38;13.73;;;9.50;;
9759;SDS011;4919;48.792;9.202;2023-02-21T05:07:23;14.27;;;9.70;;
9759;SDS011;4919;48.792;9.202;2023-02-21T05:10:08;14.27;;;9.73;;
9759;SDS011;4919;48.792;9.202;2023-02-21T05:12:53;14.03;;;9.37;;
9759;SDS011;4919;48.792;9.202;2023-02-21T05:15:38;16.73;;;10.03;;
9759;SDS011;4919;48.792;9.202;2023-02-21T05:18:23;16.50;;;10.07;;
9759;SDS011;4919;48.792;9.202;2023-02-21T05:21:08;15.10;;;9.97;;
9759;SDS011;4919;48.792;9.202;2023-02-21T05:23:52;16.03;;;10.00;;
9759;SDS011;4919;48.792;9.202;2023-02-21T05:26:37;15.60;;;9.87;;
9759;SDS011;4919;48.792;9.202;2023-02-21T05:29:22;16.10;;;10.50;;
9759;SDS011;4919;48.792;9.202;2023-02-21T05:32:07;15.83;;;10.23;;
9759;SDS011;4919;48.792;9.202;2023-02-21T05:34:52;17.67;;;10.70;;
9759;SDS011;4919;48.792;9.202;2023-02-21T05:37:37;15.30;;;9.73;;
9759;SDS011;4919;48.792;9.202;2023-02-21T05:40:22;17.90;;;10.63;;
9759;SDS011;4919;48.792;9.202;2023-02-21T05:43:07;18.10;;;10.90;;
9759;SDS011;4919;48.792;9.202;2023-02-21T05:45:52;18.80;;;11.40;;
9759;SDS011;4919;48.792;9.202;2023-02-21T05:48:37;14.67;;;9.13;;
9759;SDS011;4919;48.792;9.202;2023-02-21T05:51:21;16.20;;;10.33;;
9759;SDS011;4919;48.792;9.202;2023-02-21T05:54:07;15.27;;;9.50;;
9759;SDS011;4919;48.792;9.202;2023-02-21T05:56:55;16.47;;;10.70;;
9759;SDS011;4919;48.792;9.202;2023-02-21T05:59:40;15.37;;;9.90;;
9759;SDS011;4919;48.792;9.202;2023-02-21T06:02:24;15.67;;;9.83;;
9759;SDS011;4919;48.792;9.202;2023-02-21T06:05:09;16.47;;;10.00;;
9759;SDS011;4919;48.792;9.202;2023-02-21T06:07:54;16.40;;;9.30;;
9759;SDS011;4919;48.792;9.202;2023-02-21T06:10:39;18.13;;;10.50;;
9759;SDS011;4919;48.792;9.202;2023-02-21T06:13:24;17.43;;;9.47;;
9759;SDS011;4919;48.792;9.202;2023-02-21T06:16:09;16.77;;;10.00;;
9759;SDS011;4919;48.792;9.202;2023-02-21T06:18:54;16.33;;;9.87;;
9759;SDS011;4919;48.792;9.202;2023-02-21T06:21:40;18.23;;;10.50;;
9759;SDS011;4919;48.792;9.202;2023-02-21T06:24:24;18.60;;;10.47;;
9759;SDS011;4919;48.792;9.202;2023-02-21T06:27:09;16.33;;;9.73;;
9759;SDS011;4919;48.792;9.202;2023-02-21T06:29:54;17.80;;;10.70;;
9759;SDS011;4919;48.792;9.202;2023-02-21T06:32:40;15.90;;;10.93;;
9759;SDS011;4919;48.792;9.202;2023-02-21T06:35:25;15.07;;;9.37;;
9759;SDS011;4919;48.792;9.202;2023-02-21T06:38:10;19.33;;;13.47;;
9759;SDS011;4919;48.792;9.202;2023-02-21T06:40:55;19.23;;;10.47;;
9759;SDS011;4919;48.792;9.202;2023-02-21T06:43:40;27.83;;;18.13;;
9759;SDS011;4919;48.792;9.202;2023-02-21T06:46:26;15.70;;;9.60;;
9759;SDS011;4919;48.792;9.202;2023-02-21T06:49:12;16.67;;;9.83;;
9759;SDS011;4919;48.792;9.202;2023-02-21T06:51:57;20.30;;;10.87;;
9759;SDS011;4919;48.792;9.202;2023-02-21T06:54:41;18.17;;;9.90;;
9759;SDS011;4919;48.792;9.202;2023-02-21T06:57:26;18.17;;;10.73;;
9759;SDS011;4919;48.792;9.202;2023-02-21T07:00:12;18.40;;;10.50;;
9759;SDS011;4919;48.792;9.202;2023-02-21T07:02:58;18.40;;;10.27;;
9759;SDS011;4919;48.792;9.202;2023-02-21T07:05:43;16.67;;;9.80;;
9759;SDS011;4919;48.792;9.202;2023-02-21T07:08:28;19.10;;;10.27;;
9759;SDS011;4919;48.792;9.202;2023-02-21T07:11:13;18.23;;;9.87;;
9759;SDS011;4919;48.792;9.202;2023-02-21T07:13:58;18.83;;;9.57;;
9759;SDS011;4919;48.792;9.202;2023-02-21T07:16:43;18.13;;;9.70;;
9759;SDS011;4919;48.792;9.202;2023-02-21T07:19:28;16.50;;;9.40;;
9759;SDS011;4919;48.792;9.202;2023-02-21T07:22:13;17.63;;;9.43;;
9759;SDS011;4919;48.792;9.202;2023-02-21T07:24:58;17.63;;;10.37;;
9759;SDS011;4919;48.792;9.202;2023-02-21T07:27:43;19.80;;;10.23;;
9759;SDS011;4919;48.792;9.202;2023-02-21T07:30:29;17.97;;;10.00;;
9759;SDS011;4919;48.792;9.202;2023-02-21T07:33:14;14.63;;;9.17;;
9759;SDS011;4919;48.792;9.202;2023-02-21T07:35:59;18.40;;;9.40;;
9759;SDS011;4919;48.792;9.202;2023-02-21T07:38:43;15.17;;;8.63;;
9759;SDS011;4919;48.792;9.202;2023-02-21T07:41:30;17.70;;;9.37;;
9759;SDS011;4919;48.792;9.202;2023-02-21T07:44:14;16.20;;;9.17;;
9759;SDS011;4919;48.792;9.202;2023-02-21T07:46:59;14.87;;;8.63;;
9759;SDS011;4919;48.792;9.202;2023-02-21T07:49:44;14.67;;;8.57;;
9759;SDS011;4919;48.792;9.202;2023-02-21T07:52:29;15.27;;;8.77;;
9759;SDS011;4919;48.792;9.202;2023-02-21T07:55:14;13.50;;;7.53;;
9759;SDS011;4919;48.792;9.202;2023-02-21T07:57:59;13.37;;;7.53;;
9759;SDS011;4919;48.792;9.202;2023-02-21T08:00:45;11.63;;;6.97;;
9759;SDS011;4919;48.792;9.202;2023-02-21T08:03:30;12.40;;;7.67;;
9759;SDS011;4919;48.792;9.202;2023-02-21T08:06:15;11.90;;;6.80;;
9759;SDS011;4919;48.792;9.202;2023-02-21T08:09:00;12.40;;;7.13;;
9759;SDS011;4919;48.792;9.202;2023-02-21T08:11:44;11.43;;;6.07;;
9759;SDS011;4919;48.792;9.202;2023-02-21T08:14:29;9.83;;;5.30;;
9759;SDS011;4919;48.792;9.202;2023-02-21T08:17:14;7.30;;;4.67;;
9759;SDS011;4919;48.792;9.202;2023-02-21T08:20:00;7.97;;;4.63;;
9759;SDS011;4919;48.792;9.202;2023-02-21T08:22:45;5.90;;;3.77;;
9759;SDS011;4919;48.792;9.202;2023-02-21T08:25:30;5.40;;;3.60;;
9759;SDS011;4919;48.792;9.202;2023-02-21T08:28:15;4.83;;;3.10;;
9759;SDS011;4919;48.792;9.202;2023-02-21T08:31:00;3.53;;;2.30;;
9759;SDS011;4919;48.792;9.202;2023-02-21T08:33:45;2.63;;;1.83;;
9759;SDS011;4919;48.792;9.202;2023-02-21T08:36:40;3.53;;;1.80;;
9759;SDS011;4919;48.792;9.202;2023-02-21T08:39:26;2.00;;;1.53;;
9759;SDS011;4919;48.792;9.202;2023-02-21T08:42:11;2.17;;;1.67;;
9759;SDS011;4919;48.792;9.202;2023-02-21T08:44:57;2.80;;;2.00;;
9759;SDS011;4919;48.792;9.202;2023-02-21T08:47:42;2.90;;;2.13;;
9759;SDS011;4919;48.792;9.202;2023-02-21T08:50:27;3.67;;;2.13;;
9759;SDS011;4919;48.792;9.202;2023-02-21T08:53:12;4.03;;;2.50;;
9759;SDS011;4919;48.792;9.202;2023-02-21T08:55:58;3.97;;;2.70;;
9759;SDS011;4919;48.792;9.202;2023-02-21T08:58:43;4.57;;;2.47;;
9759;SDS011;4919;48.792;9.202;2023-02-21T09:01:32;3.70;;;2.30;;
9759;SDS011;4919;48.792;9.202;2023-02-21T09:04:18;3.60;;;2.07;;
9759;SDS011;4919;48.792;9.202;2023-02-21T09:07:03;4.67;;;2.00;;
9759;SDS011;4919;48.792;9.202;2023-02-21T09:09:48;4.97;;;2.23;;
9759;SDS011;4919;48.792;9.202;2023-02-21T09:12:33;3.00;;;2.00;;
9759;SDS011;4919;48.792;9.202;2023-02-21T09:15:18;2.03;;;1.63;;
9759;SDS011;4919;48.792;9.202;2023-02-21T09:18:03;2.20;;;1.70;;
9759;SDS011;4919;48.792;9.202;2023-02-21T09:20:47;2.73;;;1.90;;
9759;SDS011;4919;48.792;9.202;2023-02-21T09:23:32;3.13;;;1.80;;
9759;SDS011;4919;48.792;9.202;2023-02-21T09:26:17;1.77;;;1.60;;
9759;SDS011;4919;48.792;9.202;2023-02-21T09:29:02;2.03;;;1.50;;
9759;SDS011;4919;48.792;9.202;2023-02-21T09:31:47;1.60;;;1.47;;
9759;SDS011;4919;48.792;9.202;2023-02-21T09:34:32;2.67;;;1.57;;
9759;SDS011;4919;48.792;9.202;2023-02-21T09:37:17;2.40;;;1.90;;
9759;SDS011;4919;48.792;9.202;2023-02-21T09:40:02;2.17;;;1.70;;
9759;SDS011;4919;48.792;9.202;2023-02-21T09:42:48;3.57;;;2.60;;
9759;SDS011;4919;48.792;9.202;2023-02-21T09:45:36;3.80;;;2.10;;
9759;SDS011;4919;48.792;9.202;2023-02-21T09:48:21;2.83;;;2.50;;
9759;SDS011;4919;48.792;9.202;2023-02-21T09:51:07;3.43;;;2.20;;
9759;SDS011;4919;48.792;9.202;2023-02-21T09:53:54;2.53;;;1.73;;
9759;SDS011;4919;48.792;9.202;2023-02-21T09:56:43;2.87;;;2.10;;
9759;SDS011;4919;48.792;9.202;2023-02-21T09:59:29;2.87;;;1.83;;
9759;SDS011;4919;48.792;9.202;2023-02-21T10:02:20;4.23;;;1.90;;
9759;SDS011;4919;48.792;9.202;2023-02-21T10:10:57;1.40;;;1.30;;
9759;SDS011;4919;48.792;9.202;2023-02-21T10:13:58;1.57;;;1.40;;
9759;SDS011;4919;48.792;9.202;2023-02-21T10:19:59;1.93;;;1.40;;
9759;SDS011;4919;48.792;9.202;2023-02-21T10:22:46;1.90;;;1.40;;
9759;SDS011;4919;48.792;9.202;2023-02-21T10:25:32;1.77;;;1.20;;
9759;SDS011;4919;48.792;9.202;2023-02-21T10:28:19;1.27;;;1.10;;
9759;SDS011;4919;48.792;9.202;2023-02-21T10:31:09;2.73;;;1.10;;
9759;SDS011;4919;48.792;9.202;2023-02-21T10:33:55;0.83;;;0.80;;
9759;SDS011;4919;48.792;9.202;2023-02-21T10:36:40;1.70;;;1.07;;
9759;SDS011;4919;48.792;9.202;2023-02-21T10:39:44;1.23;;;1.07;;
9759;SDS011;4919;48.792;9.202;2023-02-21T10:42:35;1.83;;;0.90;;
9759;SDS011;4919;48.792;9.202;2023-02-21T10:45:24;0.80;;;0.80;;
9759;SDS011;4919;48.792;9.202;2023-02-21T10:48:15;0.80;;;0.80;;
9759;SDS011;4919;48.792;9.202;2023-02-21T10:53:48;1.60;;;0.90;;
9759;SDS011;4919;48.792;9.202;2023-02-21T10:56:32;3.07;;;1.20;;
9759;SDS011;4919;48.792;9.202;2023-02-21T10:59:27;3.17;;;1.00;;
9759;SDS011;4919;48.792;9.202;2023-02-21T11:02:24;1.93;;;0.90;;
9759;SDS011;4919;48.792;9.202;2023-02-21T11:05:18;2.57;;;1.10;;
9759;SDS011;4919;48.792;9.202;2023-02-21T11:08:06;1.93;;;1.10;;
9759;SDS011;4919;48.792;9.202;2023-02-21T11:10:53;2.23;;;1.00;;
9759;SDS011;4919;48.792;9.202;2023-02-21T11:13:38;1.97;;;1.07;;
9759;SDS011;4919;48.792;9.202;2023-02-21T11:16:23;2.60;;;1.17;;
9759;SDS011;4919;48.792;9.202;2023-02-21T11:19:09;2.60;;;1.23;;
9759;SDS011;4919;48.792;9.202;2023-02-21T11:21:56;2.67;;;1.00;;
9759;SDS011;4919;48.792;9.202;2023-02-21T11:27:37;2.10;;;1.10;;
9759;SDS011;4919;48.792;9.202;2023-02-21T11:30:22;3.87;;;1.43;;
9759;SDS011;4919;48.792;9.202;2023-02-21T11:33:07;1.60;;;1.17;;
9759;SDS011;4919;48.792;9.202;2023-02-21T11:35:53;2.07;;;1.23;;
9759;SDS011;4919;48.792;9.202;2023-02-21T11:42:01;3.70;;;1.60;;
9759;SDS011;4919;48.792;9.202;2023-02-21T11:44:48;3.20;;;1.70;;
9759;SDS011;4919;48.792;9.202;2023-02-21T11:47:52;4.63;;;1.70;;
9759;SDS011;4919;48.792;9.202;2023-02-21T11:50:43;4.43;;;1.47;;
9759;SDS011;4919;48.792;9.202;2023-02-21T11:53:43;6.47;;;1.90;;
9759;SDS011;4919;48.792;9.202;2023-02-21T11:57:12;4.43;;;3.27;;
9759;SDS011;4919;48.792;9.202;2023-02-21T11:59:53;6.43;;;3.97;;
9759;SDS011;4919;48.792;9.202;2023-02-21T12:02:57;6.10;;;2.97;;
9759;SDS011;4919;48.792;9.202;2023-02-21T12:06:04;3.27;;;2.10;;
9759;SDS011;4919;48.792;9.202;2023-02-21T12:12:26;3.83;;;2.20;;
9759;SDS011;4919;48.792;9.202;2023-02-21T12:18:22;2.90;;;2.00;;
9759;SDS011;4919;48.792;9.202;2023-02-21T12:31:04;4.00;;;1.43;;
9759;SDS011;4919;48.792;9.202;2023-02-21T12:37:04;4.23;;;1.90;;
9759;SDS011;4919;48.792;9.202;2023-02-21T12:40:18;3.50;;;2.00;;
9759;SDS011;4919;48.792;9.202;2023-02-21T12:49:22;11.27;;;7.23;;
9759;SDS011;4919;48.792;9.202;2023-02-21T12:52:43;4.97;;;2.93;;
9759;SDS011;4919;48.792;9.202;2023-02-21T12:55:35;8.07;;;3.70;;
9759;SDS011;4919;48.792;9.202;2023-02-21T12:59:45;7.97;;;5.30;;
9759;SDS011;4919;48.792;9.202;2023-02-21T13:02:09;8.17;;;4.13;;
9759;SDS011;4919;48.792;9.202;2023-02-21T13:05:15;7.63;;;4.17;;
9759;SDS011;4919;48.792;9.202;2023-02-21T13:08:18;8.97;;;5.10;;
9759;SDS011;4919;48.792;9.202;2023-02-21T13:11:16;7.23;;;4.40;;
9759;SDS011;4919;48.792;9.202;2023-02-21T13:14:09;6.90;;;4.03;;
9759;SDS011;4919;48.792;9.202;2023-02-21T13:17:01;7.77;;;6.10;;
9759;SDS011;4919;48.792;9.202;2023-02-21T13:19:52;5.40;;;3.23;;
9759;SDS011;4919;48.792;9.202;2023-02-21T13:26:12;2.77;;;1.67;;
9759;SDS011;4919;48.792;9.202;2023-02-21T13:29:19;4.83;;;2.00;;
9759;SDS011;4919;48.792;9.202;2023-02-21T13:32:13;4.07;;;1.60;;
9759;SDS011;4919;48.792;9.202;2023-02-21T13:34:59;3.83;;;1.83;;
9759;SDS011;4919;48.792;9.202;2023-02-21T13:37:45;1.97;;;1.20;;
9759;SDS011;4919;48.792;9.202;2023-02-21T13:40:39;3.87;;;1.57;;
9759;SDS011;4919;48.792;9.202;2023-02-21T13:43:27;5.57;;;1.50;;
9759;SDS011;4919;48.792;9.202;2023-02-21T13:52:52;4.20;;;1.50;;
9759;SDS011;4919;48.792;9.202;2023-02-21T13:58:49;4.07;;;1.47;;
9759;SDS011;4919;48.792;9.202;2023-02-21T14:04:48;4.43;;;1.73;;
9759;SDS011;4919;48.792;9.202;2023-02-21T14:07:42;4.90;;;1.57;;
9759;SDS011;4919;48.792;9.202;2023-02-21T14:10:31;5.77;;;1.50;;
9759;SDS011;4919;48.792;9.202;2023-02-21T14:13:21;10.80;;;6.57;;
9759;SDS011;4919;48.792;9.202;2023-02-21T14:16:45;16.57;;;9.37;;
9759;SDS011;4919;48.792;9.202;2023-02-21T14:19:41;5.83;;;2.23;;
9759;SDS011;4919;48.792;9.202;2023-02-21T14:22:30;4.50;;;1.80;;
9759;SDS011;4919;48.792;9.202;2023-02-21T14:25:16;5.27;;;2.23;;
9759;SDS011;4919;48.792;9.202;2023-02-21T14:28:47;6.03;;;3.07;;
9759;SDS011;4919;48.792;9.202;2023-02-21T14:31:47;10.10;;;4.77;;
9759;SDS011;4919;48.792;9.202;2023-02-21T14:34:58;5.60;;;2.73;;
9759;SDS011;4919;48.792;9.202;2023-02-21T14:47:25;3.13;;;1.60;;
9759;SDS011;4919;48.792;9.202;2023-02-21T15:03:19;7.00;;;2.07;;
9759;SDS011;4919;48.792;9.202;2023-02-21T15:06:07;6.03;;;1.90;;
9759;SDS011;4919;48.792;9.202;2023-02-21T15:08:56;7.87;;;2.23;;
9759;SDS011;4919;48.792;9.202;2023-02-21T15:11:41;6.97;;;1.90;;
9759;SDS011;4919;48.792;9.202;2023-02-21T15:14:28;4.57;;;1.67;;
9759;SDS011;4919;48.792;9.202;2023-02-21T15:17:20;8.87;;;1.90;;
9759;SDS011;4919;48.792;9.202;2023-02-21T15:20:14;8.37;;;1.80;;
9759;SDS011;4919;48.792;9.202;2023-02-21T15:23:10;5.50;;;1.77;;
9759;SDS011;4919;48.792;9.202;2023-02-21T15:25:58;6.07;;;2.20;;
9759;SDS011;4919;48.792;9.202;2023-02-21T15:29:03;7.87;;;2.20;;
9759;SDS011;4919;48.792;9.202;2023-02-21T15:31:55;5.83;;;1.90;;
9759;SDS011;4919;48.792;9.202;2023-02-21T15:34:41;3.73;;;1.70;;
9759;SDS011;4919;48.792;9.202;2023-02-21T15:37:28;6.60;;;1.90;;
9759;SDS011;4919;48.792;9.202;2023-02-21T15:40:16;8.87;;;1.87;;
9759;SDS011;4919;48.792;9.202;2023-02-21T15:43:05;5.03;;;1.90;;
9759;SDS011;4919;48.792;9.202;2023-02-21T15:45:51;6.70;;;2.30;;
9759;SDS011;4919;48.792;9.202;2023-02-21T15:48:37;6.57;;;2.00;;
9759;SDS011;4919;48.792;9.202;2023-02-21T15:51:22;7.83;;;1.90;;
9759;SDS011;4919;48.792;9.202;2023-02-21T16:06:26;8.37;;;2.70;;
9759;SDS011;4919;48.792;9.202;2023-02-21T16:17:42;8.83;;;2.93;;
9759;SDS011;4919;48.792;9.202;2023-02-21T16:20:30;8.87;;;2.57;;
9759;SDS011;4919;48.792;9.202;2023-02-21T16:23:30;9.10;;;2.60;;
9759;SDS011;4919;48.792;9.202;2023-02-21T16:26:21;9.50;;;2.43;;
9759;SDS011;4919;48.792;9.202;2023-02-21T16:29:07;9.90;;;2.67;;
9759;SDS011;4919;48.792;9.202;2023-02-21T16:31:52;7.47;;;2.43;;
9759;SDS011;4919;48.792;9.202;2023-02-21T16:34:37;11.87;;;2.73;;
9759;SDS011;4919;48.792;9.202;2023-02-21T16:37:22;9.07;;;2.90;;
9759;SDS011;4919;48.792;9.202;2023-02-21T16:40:14;8.33;;;2.90;;
9759;SDS011;4919;48.792;9.202;2023-02-21T16:43:02;8.17;;;2.57;;
9759;SDS011;4919;48.792;9.202;2023-02-21T16:45:49;8.80;;;2.93;;
9759;SDS011;4919;48.792;9.202;2023-02-21T16:48:36;8.53;;;2.67;;
9759;SDS011;4919;48.792;9.202;2023-02-21T16:51:21;7.57;;;2.70;;
9759;SDS011;4919;48.792;9.202;2023-02-21T16:54:05;8.57;;;2.80;;
9759;SDS011;4919;48.792;9.202;2023-02-21T16:56:51;13.23;;;3.40;;
9759;SDS011;4919;48.792;9.202;2023-02-21T16:59:36;11.90;;;2.73;;
9759;SDS011;4919;48.792;9.202;2023-02-21T17:02:21;14.03;;;2.80;;
9759;SDS011;4919;48.792;9.202;2023-02-21T17:05:06;10.80;;;2.60;;
9759;SDS011;4919;48.792;9.202;2023-02-21T17:07:51;9.07;;;2.60;;
9759;SDS011;4919;48.792;9.202;2023-02-21T17:10:37;10.93;;;2.80;;
9759;SDS011;4919;48.792;9.202;2023-02-21T17:13:22;12.83;;;3.40;;
9759;SDS011;4919;48.792;9.202;2023-02-21T17:16:08;12.70;;;3.30;;
9759;SDS011;4919;48.792;9.202;2023-02-21T17:18:53;12.67;;;3.03;;
9759;SDS011;4919;48.792;9.202;2023-02-21T17:21:38;11.47;;;3.43;;
9759;SDS011;4919;48.792;9.202;2023-02-21T17:24:23;12.00;;;3.67;;
9759;SDS011;4919;48.792;9.202;2023-02-21T17:27:08;12.87;;;3.40;;
9759;SDS011;4919;48.792;9.202;2023-02-21T17:29:53;10.70;;;3.03;;
9759;SDS011;4919;48.792;9.202;2023-02-21T17:32:38;11.30;;;4.77;;
9759;SDS011;4919;48.792;9.202;2023-02-21T17:35:23;17.80;;;8.50;;
9759;SDS011;4919;48.792;9.202;2023-02-21T17:38:08;18.27;;;9.97;;
9759;SDS011;4919;48.792;9.202;2023-02-21T17:40:53;18.93;;;8.60;;
9759;SDS011;4919;48.792;9.202;2023-02-21T17:43:37;25.53;;;9.53;;
9759;SDS011;4919;48.792;9.202;2023-02-21T17:46:22;14.10;;;7.13;;
9759;SDS011;4919;48.792;9.202;2023-02-21T17:49:07;17.33;;;6.10;;
9759;SDS011;4919;48.792;9.202;2023-02-21T17:51:52;13.70;;;5.50;;
9759;SDS011;4919;48.792;9.202;2023-02-21T17:54:38;16.63;;;5.40;;
9759;SDS011;4919;48.792;9.202;2023-02-21T17:57:23;11.47;;;5.27;;
9759;SDS011;4919;48.792;9.202;2023-02-21T18:00:09;13.90;;;6.63;;
9759;SDS011;4919;48.792;9.202;2023-02-21T18:02:58;29.13;;;12.83;;
9759;SDS011;4919;48.792;9.202;2023-02-21T18:05:44;17.27;;;6.27;;
9759;SDS011;4919;48.792;9.202;2023-02-21T18:08:28;14.10;;;5.30;;
9759;SDS011;4919;48.792;9.202;2023-02-21T18:11:14;11.10;;;3.73;;
9759;SDS011;4919;48.792;9.202;2023-02-21T18:14:01;10.37;;;4.20;;
9759;SDS011;4919;48.792;9.202;2023-02-21T18:16:46;10.37;;;4.40;;
9759;SDS011;4919;48.792;9.202;2023-02-21T18:19:31;12.07;;;3.90;;
9759;SDS011;4919;48.792;9.202;2023-02-21T18:22:16;19.03;;;4.57;;
9759;SDS011;4919;48.792;9.202;2023-02-21T18:25:01;12.77;;;4.03;;
9759;SDS011;4919;48.792;9.202;2023-02-21T18:27:46;12.43;;;4.33;;
9759;SDS011;4919;48.792;9.202;2023-02-21T18:30:31;10.63;;;4.20;;
9759;SDS011;4919;48.792;9.202;2023-02-21T18:33:17;18.90;;;6.43;;
9759;SDS011;4919;48.792;9.202;2023-02-21T18:36:05;15.70;;;6.33;;
9759;SDS011;4919;48.792;9.202;2023-02-21T18:38:50;13.77;;;6.00;;
9759;SDS011;4919;48.792;9.202;2023-02-21T18:41:35;17.00;;;5.23;;
9759;SDS011;4919;48.792;9.202;2023-02-21T18:44:20;12.87;;;5.57;;
9759;SDS011;4919;48.792;9.202;2023-02-21T18:47:05;18.20;;;6.67;;
9759;SDS011;4919;48.792;9.202;2023-02-21T18:49:50;49.10;;;18.03;;
9759;SDS011;4919;48.792;9.202;2023-02-21T18:52:35;91.03;;;31.57;;
9759;SDS011;4919;48.792;9.202;2023-02-21T18:55:20;64.60;;;24.43;;
9759;SDS011;4919;48.792;9.202;2023-02-21T18:58:05;72.50;;;26.77;;
9759;SDS011;4919;48.792;9.202;2023-02-21T19:00:51;58.17;;;22.03;;
9759;SDS011;4919;48.792;9.202;2023-02-21T19:03:36;54.57;;;19.70;;
9759;SDS011;4919;48.792;9.202;2023-02-21T19:06:21;38.57;;;15.23;;
9759;SDS011;4919;48.792;9.202;2023-02-21T19:09:06;67.77;;;25.77;;
9759;SDS011;4919;48.792;9.202;2023-02-21T19:11:51;31.53;;;12.73;;
9759;SDS011;4919;48.792;9.202;2023-02-21T19:14:36;17.97;;;6.33;;
9759;SDS011;4919;48.792;9.202;2023-02-21T19:17:21;53.67;;;20.93;;
9759;SDS011;4919;48.792;9.202;2023-02-21T19:20:06;65.43;;;26.70;;
9759;SDS011;4919;48.792;9.202;2023-02-21T19:22:51;54.17;;;20.13;;
9759;SDS011;4919;48.792;9.202;2023-02-21T19:25:36;33.57;;;13.10;;
9759;SDS011;4919;48.792;9.202;2023-02-21T19:28:21;22.63;;;7.83;;